createdAt,value
2018-03-03T00:01:59.356Z,-1.20
2018-03-03T00:04:27.630Z,-1.30
2018-03-03T00:06:56.016Z,-1.40
2018-03-03T00:09:24.281Z,-1.40
2018-03-03T00:11:52.531Z,-1.40
2018-03-03T00:14:21.544Z,-1.40
2018-03-03T00:16:49.804Z,-1.40
2018-03-03T00:19:17.315Z,-1.40
2018-03-03T00:21:44.799Z,-1.50
2018-03-03T00:24:12.300Z,-1.50
2018-03-03T00:26:40.550Z,-1.50
2018-03-03T00:29:08.801Z,-1.60
2018-03-03T00:31:36.288Z,-1.50
2018-03-03T00:34:03.809Z,-1.60
2018-03-03T00:36:31.295Z,-1.70
2018-03-03T00:38:58.800Z,-1.70
2018-03-03T00:41:26.282Z,-1.70
2018-03-03T00:43:54.559Z,-1.70
2018-03-03T00:46:22.065Z,-1.80
2018-03-03T00:48:49.579Z,-1.70
2018-03-03T00:51:17.065Z,-1.70
2018-03-03T00:53:44.567Z,-1.80
2018-03-03T00:56:12.074Z,-1.90
2018-03-03T00:58:39.890Z,-1.90
2018-03-03T01:01:07.375Z,-2.00
2018-03-03T01:03:34.872Z,-2.00
2018-03-03T01:06:02.365Z,-1.90
2018-03-03T01:08:29.858Z,-1.90
2018-03-03T01:10:57.346Z,-2.00
2018-03-03T01:13:25.624Z,-2.00
2018-03-03T01:15:53.892Z,-2.00
2018-03-03T01:18:21.385Z,-2.00
2018-03-03T01:20:48.874Z,-2.00
2018-03-03T01:23:16.358Z,-2.00
2018-03-03T01:25:43.870Z,-2.00
2018-03-03T01:28:11.374Z,-2.10
2018-03-03T01:30:38.860Z,-2.10
2018-03-03T01:33:07.124Z,-2.10
2018-03-03T01:35:34.613Z,-2.10
2018-03-03T01:38:02.102Z,-2.10
2018-03-03T01:40:29.604Z,-2.10
2018-03-03T01:42:57.861Z,-2.20
2018-03-03T01:45:25.373Z,-2.20
2018-03-03T01:47:53.629Z,-2.20
2018-03-03T01:50:21.998Z,-2.20
2018-03-03T01:52:50.249Z,-2.30
2018-03-03T01:55:17.733Z,-2.30
2018-03-03T01:57:45.986Z,-2.40
2018-03-03T02:00:13.474Z,-2.40
2018-03-03T02:02:40.962Z,-2.40
2018-03-03T02:05:08.483Z,-2.40
2018-03-03T02:07:37.770Z,-2.30
2018-03-03T02:10:05.290Z,-2.30
2018-03-03T02:12:32.790Z,-2.30
2018-03-03T02:15:00.289Z,-2.30
2018-03-03T02:17:27.772Z,-2.20
2018-03-03T02:19:55.270Z,-2.20
2018-03-03T02:22:23.526Z,-2.20
2018-03-03T02:24:51.018Z,-2.20
2018-03-03T02:27:20.205Z,-2.20
2018-03-03T02:29:48.480Z,-2.20
2018-03-03T02:32:16.734Z,-2.30
2018-03-03T02:34:44.237Z,-2.30
2018-03-03T02:37:12.592Z,-2.20
2018-03-03T02:39:40.849Z,-2.30
2018-03-03T02:42:08.353Z,-2.30
2018-03-03T02:44:35.860Z,-2.30
2018-03-03T02:47:03.353Z,-2.30
2018-03-03T02:49:31.610Z,-2.40
2018-03-03T02:51:59.869Z,-2.40
2018-03-03T02:54:27.360Z,-2.40
2018-03-03T02:56:54.864Z,-2.40
2018-03-03T02:59:22.353Z,-2.40
2018-03-03T03:01:50.633Z,-2.40
2018-03-03T03:04:18.115Z,-2.40
2018-03-03T03:06:46.368Z,-2.40
2018-03-03T03:09:14.629Z,-2.40
2018-03-03T03:11:43.626Z,-2.40
2018-03-03T03:14:11.128Z,-2.40
2018-03-03T03:16:38.659Z,-2.40
2018-03-03T03:19:06.111Z,-2.40
2018-03-03T03:21:33.599Z,-2.40
2018-03-03T03:24:01.097Z,-2.50
2018-03-03T03:26:28.599Z,-2.40
2018-03-03T03:28:56.861Z,-2.50
2018-03-03T03:31:24.363Z,-2.50
2018-03-03T03:33:51.853Z,-2.50
2018-03-03T03:36:19.336Z,-2.50
2018-03-03T03:38:46.832Z,-2.50
2018-03-03T03:41:14.311Z,-2.50
2018-03-03T03:43:41.796Z,-2.40
2018-03-03T03:46:09.286Z,-2.40
2018-03-03T03:48:37.536Z,-2.50
2018-03-03T03:51:05.081Z,-2.50
2018-03-03T03:53:32.554Z,-2.60
2018-03-03T03:56:00.794Z,-2.60
2018-03-03T03:58:28.289Z,-2.60
2018-03-03T04:00:56.546Z,-2.50
2018-03-03T04:03:24.037Z,-2.60
2018-03-03T04:05:53.215Z,-2.80
2018-03-03T04:08:20.709Z,-2.90
2018-03-03T04:10:48.191Z,-2.90
2018-03-03T04:13:15.686Z,-2.80
2018-03-03T04:15:43.975Z,-2.90
2018-03-03T04:18:11.480Z,-2.90
2018-03-03T04:20:39.304Z,-3.00
2018-03-03T04:23:07.581Z,-3.00
2018-03-03T04:25:35.832Z,-3.00
2018-03-03T04:28:03.327Z,-3.00
2018-03-03T04:30:31.578Z,-3.10
2018-03-03T04:32:59.095Z,-3.10
2018-03-03T04:35:26.900Z,-3.30
2018-03-03T04:37:54.404Z,-3.30
2018-03-03T04:40:21.885Z,-3.20
2018-03-03T04:42:49.378Z,-3.10
2018-03-03T04:45:16.879Z,-3.10
2018-03-03T04:47:44.362Z,-3.10
2018-03-03T04:50:11.854Z,-3.00
2018-03-03T04:52:39.335Z,-3.00
2018-03-03T04:55:06.860Z,-3.00
2018-03-03T04:57:34.349Z,-3.10
2018-03-03T05:00:17.491Z,-3.30
2018-03-03T05:02:45.915Z,-3.30
2018-03-03T05:05:19.240Z,-3.20
2018-03-03T05:07:53.317Z,-3.20
2018-03-03T05:13:32.340Z,-3.20
2018-03-03T05:16:05.442Z,-3.20
2018-03-03T05:18:38.760Z,-3.10
2018-03-03T05:34:51.454Z,-3.20
2018-03-03T05:37:35.671Z,-3.20
2018-03-03T05:40:08.812Z,-3.20
2018-03-03T05:42:42.103Z,-3.20
2018-03-03T05:45:15.253Z,-3.20
2018-03-03T06:01:14.052Z,-3.20
2018-03-03T06:03:47.147Z,-3.20
2018-03-03T06:06:20.458Z,-3.10
2018-03-03T06:09:02.823Z,-3.10
2018-03-03T06:11:30.321Z,-3.10
2018-03-03T06:13:58.577Z,-3.20
2018-03-03T06:16:26.076Z,-3.20
2018-03-03T06:18:54.332Z,-3.30
2018-03-03T06:21:22.606Z,-3.30
2018-03-03T06:23:50.104Z,-3.30
2018-03-03T06:26:17.596Z,-3.30
2018-03-03T06:28:45.087Z,-3.30
2018-03-03T06:31:12.657Z,-3.20
2018-03-03T06:33:40.930Z,-3.20
2018-03-03T06:36:09.211Z,-3.10
2018-03-03T06:38:37.449Z,-3.10
2018-03-03T06:41:04.947Z,-3.10
2018-03-03T06:43:33.200Z,-3.10
2018-03-03T06:46:00.696Z,-3.10
2018-03-03T06:48:28.189Z,-3.10
2018-03-03T06:50:55.683Z,-3.10
2018-03-03T06:53:23.187Z,-3.10
2018-03-03T06:55:50.690Z,-3.10
2018-03-03T06:58:18.166Z,-3.00
2018-03-03T07:00:46.404Z,-2.90
2018-03-03T07:03:13.910Z,-3.00
2018-03-03T07:05:42.167Z,-2.90
2018-03-03T07:08:09.687Z,-2.90
2018-03-03T07:10:37.172Z,-2.90
2018-03-03T07:13:04.668Z,-2.80
2018-03-03T07:15:32.150Z,-2.70
2018-03-03T07:17:59.658Z,-2.70
2018-03-03T07:20:27.146Z,-2.70
2018-03-03T07:22:54.727Z,-2.60
2018-03-03T07:25:22.197Z,-2.60
2018-03-03T07:27:49.686Z,-2.50
2018-03-03T07:30:17.175Z,-2.50
2018-03-03T07:32:44.673Z,-2.40
2018-03-03T07:35:12.175Z,-2.30
2018-03-03T07:37:39.683Z,-2.20
2018-03-03T07:40:07.154Z,-2.20
2018-03-03T07:42:34.653Z,-2.10
2018-03-03T07:45:02.920Z,-2.00
2018-03-03T07:47:30.448Z,-2.10
2018-03-03T07:49:57.934Z,-2.00
2018-03-03T07:52:25.501Z,-1.90
2018-03-03T07:54:54.539Z,-1.80
2018-03-03T07:57:22.135Z,-1.80
2018-03-03T07:59:50.409Z,-1.60
2018-03-03T08:02:17.904Z,-1.60
2018-03-03T08:04:46.158Z,-1.60
2018-03-03T08:07:13.652Z,-1.60
2018-03-03T08:09:41.150Z,-1.50
2018-03-03T08:12:08.666Z,-1.40
2018-03-03T08:14:36.156Z,-1.30
2018-03-03T08:17:03.643Z,-1.20
2018-03-03T08:19:31.124Z,-1.10
2018-03-03T08:21:58.614Z,-1.00
2018-03-03T08:24:26.111Z,-0.90
2018-03-03T08:26:53.581Z,-0.80
2018-03-03T08:29:21.850Z,-0.50
2018-03-03T08:31:49.326Z,-0.50
2018-03-03T08:34:17.582Z,-0.30
2018-03-03T08:36:45.153Z,-0.30
2018-03-03T08:39:13.424Z,-0.10
2018-03-03T08:41:41.672Z,0.00
2018-03-03T08:44:09.174Z,0.00
2018-03-03T08:46:37.423Z,0.20
2018-03-03T08:49:05.681Z,0.30
2018-03-03T08:51:33.792Z,0.30
2018-03-03T08:54:02.077Z,0.50
2018-03-03T08:56:30.322Z,0.50
2018-03-03T08:58:57.824Z,0.50
2018-03-03T09:01:25.302Z,0.50
2018-03-03T09:03:52.818Z,0.50
2018-03-03T09:06:22.972Z,0.80
2018-03-03T09:08:50.466Z,0.80
2018-03-03T09:11:17.940Z,0.90
2018-03-03T09:13:45.441Z,0.90
2018-03-03T09:16:12.920Z,1.00
2018-03-03T09:18:40.415Z,1.00
2018-03-03T09:21:07.988Z,1.10
2018-03-03T09:23:36.270Z,1.10
2018-03-03T09:26:04.530Z,1.20
2018-03-03T09:28:32.032Z,1.20
2018-03-03T09:30:59.558Z,1.20
2018-03-03T09:33:27.799Z,1.30
2018-03-03T09:35:55.316Z,1.30
2018-03-03T09:38:22.932Z,1.40
2018-03-03T09:40:50.431Z,1.50
2018-03-03T09:43:17.924Z,1.50
2018-03-03T09:45:45.416Z,1.60
2018-03-03T09:48:13.668Z,1.80
2018-03-03T09:50:41.157Z,1.80
2018-03-03T09:53:09.409Z,1.90
2018-03-03T09:55:36.905Z,1.90
2018-03-03T09:58:04.393Z,2.00
2018-03-03T10:00:32.693Z,2.10
2018-03-03T10:03:00.191Z,2.10
2018-03-03T10:05:28.453Z,2.20
2018-03-03T10:07:56.710Z,2.20
2018-03-03T10:10:24.310Z,2.20
2018-03-03T10:12:52.542Z,2.40
2018-03-03T10:15:20.042Z,2.40
2018-03-03T10:17:48.282Z,2.50
2018-03-03T10:20:17.273Z,2.50
2018-03-03T10:22:46.277Z,2.60
2018-03-03T10:25:13.756Z,2.60
2018-03-03T10:27:42.014Z,2.70
2018-03-03T10:30:09.509Z,2.70
2018-03-03T10:32:36.996Z,2.70
2018-03-03T10:35:04.482Z,2.80
2018-03-03T10:37:33.489Z,2.90
2018-03-03T10:40:01.738Z,3.00
2018-03-03T10:42:29.231Z,2.90
2018-03-03T10:44:57.490Z,3.00
2018-03-03T10:47:24.989Z,3.00
2018-03-03T10:49:52.481Z,3.10
2018-03-03T10:52:19.967Z,3.10
2018-03-03T10:54:47.465Z,3.10
2018-03-03T10:57:14.987Z,3.20
2018-03-03T10:59:43.241Z,3.30
2018-03-03T11:02:10.726Z,3.30
2018-03-03T11:04:38.979Z,3.40
2018-03-03T11:07:06.483Z,3.30
2018-03-03T11:09:33.970Z,3.50
2018-03-03T11:12:01.491Z,3.50
2018-03-03T11:14:28.963Z,3.50
2018-03-03T11:16:56.462Z,3.50
2018-03-03T11:19:23.948Z,3.60
2018-03-03T11:21:52.194Z,3.80
2018-03-03T11:24:19.667Z,3.80
2018-03-03T11:26:47.168Z,3.90
2018-03-03T11:29:14.667Z,3.90
2018-03-03T11:31:42.162Z,4.00
2018-03-03T11:34:10.437Z,4.20
2018-03-03T11:36:38.703Z,4.20
2018-03-03T11:39:06.299Z,4.20
2018-03-03T11:41:33.800Z,4.40
2018-03-03T11:44:01.265Z,4.40
2018-03-03T11:46:28.757Z,4.50
2018-03-03T11:48:56.242Z,4.50
2018-03-03T11:51:23.717Z,4.50
2018-03-03T11:53:51.213Z,4.50
2018-03-03T11:56:19.451Z,4.70
2018-03-03T11:58:46.954Z,4.60
2018-03-03T12:01:15.213Z,4.80
2018-03-03T12:03:43.474Z,4.80
2018-03-03T12:06:10.962Z,4.80
2018-03-03T12:08:38.441Z,4.80
2018-03-03T12:11:05.932Z,4.70
2018-03-03T12:13:33.425Z,4.80
2018-03-03T12:16:01.671Z,4.90
2018-03-03T12:18:29.161Z,4.90
2018-03-03T12:20:57.410Z,5.10
2018-03-03T12:23:24.903Z,5.00
2018-03-03T12:25:53.152Z,5.20
2018-03-03T12:28:20.639Z,5.20
2018-03-03T12:30:48.878Z,5.30
2018-03-03T12:33:16.378Z,5.20
2018-03-03T12:35:43.960Z,5.30
2018-03-03T12:38:12.189Z,5.40
2018-03-03T12:40:39.671Z,5.40
2018-03-03T12:43:07.154Z,5.50
2018-03-03T12:45:34.638Z,5.60
2018-03-03T12:48:02.136Z,5.70
2018-03-03T12:50:30.371Z,5.70
2018-03-03T12:52:59.562Z,5.70
2018-03-03T12:55:27.071Z,5.70
2018-03-03T12:57:55.398Z,5.60
2018-03-03T13:00:22.842Z,5.60
2018-03-03T13:02:50.354Z,5.60
2018-03-03T13:05:18.602Z,5.70
2018-03-03T13:07:46.101Z,5.70
2018-03-03T13:10:14.362Z,5.60
2018-03-03T13:12:42.649Z,5.50
2018-03-03T13:15:10.114Z,5.50
2018-03-03T13:17:37.612Z,5.30
2018-03-03T13:20:05.102Z,5.20
2018-03-03T13:22:32.642Z,5.00
2018-03-03T13:25:00.134Z,4.90
2018-03-03T13:27:28.403Z,4.70
2018-03-03T13:29:56.660Z,4.60
2018-03-03T13:32:24.151Z,4.60
2018-03-03T13:34:52.402Z,4.70
2018-03-03T13:37:19.876Z,4.70
2018-03-03T13:39:48.132Z,4.70
2018-03-03T13:42:15.606Z,4.70
2018-03-03T13:44:43.865Z,4.80
2018-03-03T13:47:11.499Z,4.80
2018-03-03T13:49:39.000Z,4.80
2018-03-03T13:52:06.485Z,4.90
2018-03-03T13:54:33.988Z,4.90
2018-03-03T13:57:01.486Z,4.80
2018-03-03T13:59:29.772Z,4.80
2018-03-03T14:01:57.249Z,4.80
2018-03-03T14:04:24.749Z,4.80
2018-03-03T14:06:52.249Z,4.90
2018-03-03T14:09:19.743Z,4.90
2018-03-03T14:11:47.223Z,4.90
2018-03-03T14:14:14.711Z,4.90
2018-03-03T14:16:42.955Z,4.90
2018-03-03T14:19:10.478Z,4.90
2018-03-03T14:21:37.968Z,4.90
2018-03-03T14:24:05.462Z,4.90
2018-03-03T14:26:33.714Z,4.80
2018-03-03T14:29:01.319Z,4.80
2018-03-03T14:31:28.806Z,4.90
2018-03-03T14:33:56.303Z,5.00
2018-03-03T14:36:24.539Z,5.00
2018-03-03T14:38:52.022Z,4.90
2018-03-03T14:41:21.012Z,5.00
2018-03-03T14:43:50.020Z,4.90
2018-03-03T14:46:18.267Z,5.00
2018-03-03T14:48:45.770Z,5.00
2018-03-03T14:51:14.017Z,5.00
2018-03-03T14:53:41.545Z,5.00
2018-03-03T14:56:09.038Z,4.90
2018-03-03T14:58:36.606Z,4.90
2018-03-03T15:01:04.854Z,4.70
2018-03-03T15:03:32.342Z,4.70
2018-03-03T15:06:00.608Z,4.70
2018-03-03T15:08:28.097Z,4.70
2018-03-03T15:10:55.585Z,4.70
2018-03-03T15:13:23.083Z,4.60
2018-03-03T15:15:50.680Z,4.60
2018-03-03T15:18:18.162Z,4.50
2018-03-03T15:20:45.660Z,4.50
2018-03-03T15:23:13.134Z,4.40
2018-03-03T15:25:41.383Z,4.40
2018-03-03T15:28:08.886Z,4.30
2018-03-03T15:30:36.360Z,4.30
2018-03-03T15:33:03.869Z,4.30
2018-03-03T15:35:31.350Z,4.20
2018-03-03T15:37:59.594Z,4.10
2018-03-03T15:40:27.089Z,4.10
2018-03-03T15:42:54.566Z,4.10
2018-03-03T15:45:22.064Z,4.10
2018-03-03T15:47:49.645Z,4.00
2018-03-03T15:50:17.912Z,4.00
2018-03-03T15:52:45.386Z,4.00
2018-03-03T15:55:13.659Z,3.90
2018-03-03T15:57:41.933Z,3.90
2018-03-03T16:00:10.188Z,3.80
2018-03-03T16:02:37.663Z,3.80
2018-03-03T16:05:05.924Z,3.70
2018-03-03T16:07:33.400Z,3.70
2018-03-03T16:10:02.470Z,3.70
2018-03-03T16:12:29.957Z,3.60
2018-03-03T16:14:58.210Z,3.70
2018-03-03T16:17:25.684Z,3.70
2018-03-03T16:19:53.936Z,3.80
2018-03-03T16:22:21.435Z,3.70
2018-03-03T16:24:48.936Z,3.70
2018-03-03T16:27:16.427Z,3.80
2018-03-03T16:29:43.897Z,3.80
2018-03-03T16:32:12.175Z,3.90
2018-03-03T16:35:01.138Z,3.90
2018-03-03T16:37:29.391Z,3.80
2018-03-03T16:39:56.881Z,3.80
2018-03-03T16:42:24.377Z,3.70
2018-03-03T16:44:51.859Z,3.70
2018-03-03T16:47:19.358Z,3.50
2018-03-03T16:49:46.857Z,3.50
2018-03-03T16:52:14.964Z,3.40
2018-03-03T16:54:43.237Z,3.30
2018-03-03T16:57:11.494Z,3.20
2018-03-03T16:59:40.520Z,3.20
2018-03-03T17:02:08.770Z,3.10
2018-03-03T17:04:37.029Z,3.10
2018-03-03T17:07:04.504Z,3.10
2018-03-03T17:09:32.007Z,3.10
2018-03-03T17:11:59.509Z,3.10
2018-03-03T17:14:26.984Z,3.00
2018-03-03T17:16:54.476Z,3.00
2018-03-03T17:19:21.961Z,2.90
2018-03-03T17:21:49.466Z,2.90
2018-03-03T17:24:17.719Z,2.80
2018-03-03T17:26:45.298Z,2.80
2018-03-03T17:29:13.546Z,2.80
2018-03-03T17:31:41.037Z,2.80
2018-03-03T17:34:09.368Z,2.70
2018-03-03T17:36:43.838Z,2.70
2018-03-03T17:39:11.328Z,2.70
2018-03-03T17:41:39.586Z,2.70
2018-03-03T17:44:07.059Z,2.60
2018-03-03T17:46:35.498Z,2.60
2018-03-03T17:49:02.986Z,2.60
2018-03-03T17:51:30.451Z,2.60
2018-03-03T17:53:57.946Z,2.50
2018-03-03T17:56:25.440Z,2.50
2018-03-03T17:58:53.697Z,2.50
2018-03-03T18:01:21.181Z,2.50
2018-03-03T18:03:49.433Z,2.40
2018-03-03T18:06:18.425Z,2.40
2018-03-03T18:08:45.911Z,2.40
2018-03-03T18:11:14.981Z,2.40
2018-03-03T18:13:42.469Z,2.40
2018-03-03T18:16:09.961Z,2.40
2018-03-03T18:18:37.461Z,2.30
2018-03-03T18:21:05.697Z,2.30
2018-03-03T18:23:33.192Z,2.30
2018-03-03T18:26:00.659Z,2.30
2018-03-03T18:28:28.901Z,2.30
2018-03-03T18:30:57.143Z,2.30
2018-03-03T18:33:24.667Z,2.20
2018-03-03T18:35:52.903Z,2.20
2018-03-03T18:38:22.028Z,2.20
2018-03-03T18:40:50.283Z,2.20
2018-03-03T18:43:17.772Z,2.20
2018-03-03T18:45:46.014Z,2.20
2018-03-03T18:48:13.603Z,2.20
2018-03-03T18:50:41.868Z,2.20
2018-03-03T18:53:09.394Z,2.10
2018-03-03T18:55:36.875Z,2.20
2018-03-03T18:58:04.340Z,2.20
2018-03-03T19:00:33.349Z,2.10
2018-03-03T19:03:01.861Z,2.20
2018-03-03T19:05:29.318Z,2.10
2018-03-03T19:07:56.810Z,2.10
2018-03-03T19:10:24.314Z,2.10
2018-03-03T19:12:52.576Z,2.10
2018-03-03T19:15:20.089Z,2.10
2018-03-03T19:17:47.566Z,2.00
2018-03-03T19:20:15.157Z,2.10
2018-03-03T19:22:43.443Z,2.00
2018-03-03T19:25:11.704Z,2.00
2018-03-03T19:27:39.959Z,2.00
2018-03-03T19:30:07.470Z,2.00
2018-03-03T19:32:34.967Z,2.00
2018-03-03T19:35:02.464Z,2.00
2018-03-03T19:37:30.722Z,2.00
2018-03-03T19:39:58.216Z,2.00
2018-03-03T19:42:25.689Z,2.00
2018-03-03T19:44:53.174Z,2.00
2018-03-03T19:47:21.567Z,2.00
2018-03-03T19:49:49.073Z,1.90
2018-03-03T19:52:16.574Z,1.90
2018-03-03T19:54:44.177Z,1.90
2018-03-03T19:57:12.431Z,1.90
2018-03-03T19:59:39.944Z,1.90
2018-03-03T20:02:07.425Z,1.90
2018-03-03T20:07:28.610Z,1.90
2018-03-03T20:09:56.096Z,1.90
2018-03-03T20:12:23.586Z,1.90
2018-03-03T20:14:51.078Z,1.90
2018-03-03T20:17:18.563Z,1.90
2018-03-03T20:19:46.066Z,1.90
2018-03-03T20:22:13.591Z,1.90
2018-03-03T20:24:41.067Z,1.90
2018-03-03T20:27:08.571Z,1.90
2018-03-03T20:29:36.066Z,1.80
2018-03-03T20:32:03.557Z,1.80
2018-03-03T20:34:31.038Z,1.80
2018-03-03T20:36:58.531Z,1.80
2018-03-03T20:39:26.010Z,1.80
2018-03-03T20:41:53.510Z,1.80
2018-03-03T20:44:21.736Z,1.80
2018-03-03T20:46:50.217Z,1.80
2018-03-03T20:49:17.699Z,1.80
2018-03-03T20:51:45.200Z,1.80
2018-03-03T20:54:12.700Z,1.80
2018-03-03T20:56:40.192Z,1.80
2018-03-03T20:59:08.436Z,1.80
2018-03-03T21:01:36.695Z,1.80
2018-03-03T21:04:04.206Z,1.80
2018-03-03T21:06:32.472Z,1.80
2018-03-03T21:09:00.716Z,1.70
2018-03-03T21:11:43.176Z,1.70
2018-03-03T21:14:10.662Z,1.80
2018-03-03T21:16:38.179Z,1.80
2018-03-03T21:19:06.424Z,1.80
2018-03-03T21:21:35.440Z,1.70
2018-03-03T21:24:03.707Z,1.70
2018-03-03T21:26:31.184Z,1.70
2018-03-03T21:28:59.440Z,1.70
2018-03-03T21:31:26.920Z,1.70
2018-03-03T21:33:55.187Z,1.70
2018-03-03T21:36:22.678Z,1.70
2018-03-03T21:38:50.162Z,1.70
2018-03-03T21:41:17.647Z,1.70
2018-03-03T21:43:45.156Z,1.70
2018-03-03T21:46:12.638Z,1.70
2018-03-03T21:48:40.133Z,1.70
2018-03-03T21:51:08.377Z,1.70
2018-03-03T21:53:35.865Z,1.70
2018-03-03T21:56:04.121Z,1.70
2018-03-03T21:58:31.615Z,1.70
2018-03-03T22:00:59.871Z,1.70
2018-03-03T22:03:27.369Z,1.70
2018-03-03T22:05:54.850Z,1.70
2018-03-03T22:08:22.348Z,1.70
2018-03-03T22:10:50.593Z,1.80
2018-03-03T22:13:18.080Z,1.70
2018-03-03T22:15:45.577Z,1.70
2018-03-03T22:18:13.131Z,1.70
2018-03-03T22:20:40.594Z,1.70
2018-03-03T22:23:08.088Z,1.70
2018-03-03T22:25:35.576Z,1.70
2018-03-03T22:28:03.818Z,1.70
2018-03-03T22:30:31.320Z,1.60
2018-03-03T22:32:59.574Z,1.60
2018-03-03T22:35:27.825Z,1.60
2018-03-03T22:37:55.335Z,1.60
2018-03-03T22:40:23.581Z,1.50
2018-03-03T22:42:51.050Z,1.50
2018-03-03T22:45:19.931Z,1.50
2018-03-03T22:47:48.934Z,1.40
2018-03-03T22:50:17.197Z,1.40
2018-03-03T22:52:44.669Z,1.40
2018-03-03T22:55:12.916Z,1.30
2018-03-03T22:57:40.396Z,1.30
2018-03-03T23:00:07.876Z,1.30
2018-03-03T23:02:35.352Z,1.30
2018-03-03T23:05:02.855Z,1.30
2018-03-03T23:07:30.444Z,1.30
2018-03-03T23:09:58.698Z,1.40
2018-03-03T23:12:26.269Z,1.30
2018-03-03T23:14:54.527Z,1.40
2018-03-03T23:17:22.031Z,1.40
2018-03-03T23:19:50.261Z,1.40
2018-03-03T23:22:17.758Z,1.40
2018-03-03T23:24:45.282Z,1.50
2018-03-03T23:27:12.761Z,1.50
2018-03-03T23:29:41.031Z,1.50
2018-03-03T23:32:09.297Z,1.50
2018-03-03T23:34:36.794Z,1.50
2018-03-03T23:37:04.279Z,1.50
2018-03-03T23:39:31.764Z,1.50
2018-03-03T23:41:59.248Z,1.50
2018-03-03T23:44:27.502Z,1.40
2018-03-03T23:46:54.980Z,1.40
2018-03-03T23:49:23.266Z,1.40
2018-03-03T23:51:50.751Z,1.40
2018-03-03T23:54:18.248Z,1.40
2018-03-03T23:56:45.733Z,1.40
2018-03-03T23:59:13.965Z,1.40
